createdAt,value
2023-04-13T00:04:54.736Z,8.00
2023-04-13T00:09:57.712Z,7.90
2023-04-13T00:15:01.896Z,7.90
2023-04-13T00:20:08.612Z,7.80
2023-04-13T00:25:14.446Z,7.70
2023-04-13T00:30:17.807Z,7.60
2023-04-13T00:35:24.870Z,7.60
2023-04-13T00:40:28.166Z,7.60
2023-04-13T00:45:30.180Z,7.60
2023-04-13T00:50:34.052Z,7.50
2023-04-13T00:55:39.414Z,7.50
2023-04-13T01:00:43.060Z,7.50
2023-04-13T01:06:09.520Z,7.60
2023-04-13T01:11:39.445Z,7.50
2023-04-13T01:16:45.733Z,7.60
2023-04-13T01:21:54.772Z,7.60
2023-04-13T01:27:06.230Z,7.60
2023-04-13T01:32:08.977Z,7.60
2023-04-13T01:37:12.780Z,7.60
2023-04-13T01:42:15.085Z,7.60
2023-04-13T01:47:20.423Z,7.60
2023-04-13T01:52:35.507Z,7.50
2023-04-13T01:57:41.063Z,7.50
2023-04-13T02:02:45.338Z,7.50
2023-04-13T02:07:47.642Z,7.50
2023-04-13T02:12:49.550Z,7.50
2023-04-13T02:17:52.406Z,7.50
2023-04-13T02:22:54.967Z,7.50
2023-04-13T02:27:57.187Z,7.50
2023-04-13T02:32:58.973Z,7.40
2023-04-13T02:38:00.931Z,7.40
2023-04-13T02:43:02.689Z,7.30
2023-04-13T02:48:06.991Z,7.30
2023-04-13T02:53:09.134Z,7.20
2023-04-13T02:58:14.638Z,7.10
2023-04-13T03:03:20.699Z,7.10
2023-04-13T03:08:25.915Z,7.00
2023-04-13T03:13:42.079Z,6.80
2023-04-13T03:18:45.773Z,6.80
2023-04-13T03:23:48.623Z,6.70
2023-04-13T03:28:52.483Z,6.70
2023-04-13T03:33:55.026Z,6.60
2023-04-13T03:38:58.049Z,6.60
2023-04-13T03:44:02.777Z,6.60
2023-04-13T03:49:08.833Z,6.60
2023-04-13T03:54:11.976Z,6.40
2023-04-13T03:59:14.549Z,6.40
2023-04-13T04:04:16.649Z,6.40
2023-04-13T04:09:19.705Z,6.40
2023-04-13T04:14:23.017Z,6.40
2023-04-13T04:19:31.454Z,6.40
2023-04-13T04:24:34.548Z,6.40
2023-04-13T04:29:36.513Z,6.40
2023-04-13T04:34:52.964Z,6.40
2023-04-13T04:39:56.204Z,6.40
2023-04-13T04:44:58.083Z,6.30
2023-04-13T04:50:03.488Z,6.20
2023-04-13T04:55:11.068Z,6.20
2023-04-13T05:00:16.845Z,6.20
2023-04-13T05:05:30.632Z,6.20
2023-04-13T05:10:35.995Z,6.30
2023-04-13T05:15:37.858Z,6.30
2023-04-13T05:20:40.696Z,6.20
2023-04-13T05:25:43.151Z,6.30
2023-04-13T05:30:52.433Z,6.30
2023-04-13T05:35:54.307Z,6.30
2023-04-13T05:40:57.923Z,6.40
2023-04-13T05:46:00.275Z,6.40
2023-04-13T05:51:02.285Z,6.40
2023-04-13T05:56:08.252Z,6.50
2023-04-13T06:01:13.321Z,6.60
2023-04-13T06:06:18.592Z,6.70
2023-04-13T06:11:20.980Z,6.70
2023-04-13T06:16:23.318Z,6.70
2023-04-13T06:21:27.588Z,6.80
2023-04-13T06:26:29.514Z,6.90
2023-04-13T06:31:32.819Z,6.80
2023-04-13T06:36:40.436Z,6.80
2023-04-13T06:41:44.004Z,6.90
2023-04-13T06:52:55.307Z,6.90
2023-04-13T06:57:57.222Z,6.90
2023-04-13T07:02:59.380Z,6.90
2023-04-13T07:08:01.715Z,6.90
2023-04-13T07:13:04.573Z,6.90
2023-04-13T07:18:07.400Z,7.00
2023-04-13T07:23:09.436Z,6.90
2023-04-13T07:28:12.176Z,7.00
2023-04-13T07:33:14.105Z,7.10
2023-04-13T07:38:16.372Z,7.10
2023-04-13T07:43:20.335Z,7.20
2023-04-13T07:48:22.760Z,7.20
2023-04-13T07:53:24.687Z,7.40
2023-04-13T07:58:27.278Z,7.40
2023-04-13T08:03:33.662Z,7.50
2023-04-13T08:08:37.759Z,7.60
2023-04-13T08:13:40.968Z,7.70
2023-04-13T08:18:43.911Z,7.80
2023-04-13T08:23:47.692Z,7.90
2023-04-13T08:28:52.846Z,7.80
2023-04-13T08:33:57.142Z,7.80
2023-04-13T08:39:00.010Z,7.80
2023-04-13T08:44:06.644Z,7.80
2023-04-13T08:49:13.464Z,7.90
2023-04-13T08:54:35.208Z,8.10
2023-04-13T08:59:41.764Z,8.30
2023-04-13T09:04:44.966Z,8.30
2023-04-13T09:09:49.804Z,8.30
2023-04-13T09:14:55.218Z,8.30
2023-04-13T09:20:25.659Z,8.30
2023-04-13T09:25:30.180Z,8.30
2023-04-13T09:30:31.907Z,8.70
2023-04-13T09:35:34.641Z,8.90
2023-04-13T09:40:38.897Z,8.90
2023-04-13T09:45:44.441Z,8.90
2023-04-13T09:50:46.568Z,8.70
2023-04-13T09:56:00.159Z,8.80
2023-04-13T10:01:02.011Z,9.20
2023-04-13T10:06:08.006Z,9.70
2023-04-13T10:11:14.889Z,10.00
2023-04-13T10:16:36.694Z,9.90
2023-04-13T10:21:42.736Z,9.70
2023-04-13T10:26:45.221Z,9.60
2023-04-13T10:31:51.401Z,9.80
2023-04-13T10:36:56.051Z,9.70
2023-04-13T10:42:06.280Z,9.80
2023-04-13T10:47:08.557Z,10.00
2023-04-13T10:52:11.553Z,10.50
2023-04-13T10:57:13.608Z,10.70
2023-04-13T11:02:17.279Z,10.90
2023-04-13T11:07:23.345Z,11.00
2023-04-13T11:12:25.631Z,11.40
2023-04-13T11:17:27.670Z,11.40
2023-04-13T11:22:35.623Z,11.20
2023-04-13T11:27:38.131Z,11.10
2023-04-13T11:32:43.407Z,11.10
2023-04-13T11:37:52.591Z,11.00
2023-04-13T11:42:58.774Z,10.90
2023-04-13T11:48:06.090Z,11.10
2023-04-13T11:53:09.451Z,11.40
2023-04-13T11:58:16.048Z,11.50
2023-04-13T12:03:34.482Z,11.70
2023-04-13T12:08:41.637Z,11.70
2023-04-13T12:13:52.275Z,11.60
2023-04-13T12:19:09.857Z,11.70
2023-04-13T12:24:12.456Z,11.50
2023-04-13T12:29:14.237Z,11.50
2023-04-13T12:34:16.061Z,11.60
2023-04-13T12:39:17.811Z,11.60
2023-04-13T12:44:19.534Z,11.60
2023-04-13T12:49:21.358Z,11.50
2023-04-13T12:54:23.237Z,11.60
2023-04-13T12:59:25.096Z,11.70
2023-04-13T13:04:30.227Z,11.60
2023-04-13T13:09:32.104Z,11.50
2023-04-13T13:14:33.879Z,11.30
2023-04-13T13:19:35.765Z,11.00
2023-04-13T13:24:39.063Z,10.70
2023-04-13T13:29:41.842Z,10.50
2023-04-13T13:34:43.691Z,10.30
2023-04-13T13:39:46.115Z,10.20
2023-04-13T13:44:47.889Z,10.10
2023-04-13T13:49:50.894Z,10.10
2023-04-13T13:55:08.257Z,9.90
2023-04-13T14:00:17.650Z,10.00
2023-04-13T14:05:21.776Z,9.90
2023-04-13T14:10:23.732Z,9.90
2023-04-13T14:15:25.676Z,9.70
2023-04-13T14:20:27.734Z,9.50
2023-04-13T14:25:29.631Z,9.30
2023-04-13T14:30:31.446Z,9.10
2023-04-13T14:35:33.491Z,8.80
2023-04-13T14:40:35.938Z,8.70
2023-04-13T14:45:37.959Z,8.70
2023-04-13T14:50:39.714Z,8.50
2023-04-13T14:55:41.650Z,8.60
2023-04-13T15:00:43.580Z,8.50
2023-04-13T15:05:49.869Z,8.30
2023-04-13T15:10:53.577Z,7.90
2023-04-13T15:15:55.622Z,7.60
2023-04-13T15:21:01.970Z,7.60
2023-04-13T15:26:04.106Z,7.60
2023-04-13T15:31:05.915Z,7.60
2023-04-13T15:36:08.874Z,7.60
2023-04-13T15:41:11.210Z,7.60
2023-04-13T15:46:13.266Z,7.60
2023-04-13T15:51:15.969Z,7.50
2023-04-13T15:56:17.948Z,7.50
2023-04-13T16:01:19.886Z,7.50
2023-04-13T16:06:21.777Z,7.50
2023-04-13T16:11:24.021Z,7.50
2023-04-13T16:16:27.111Z,7.40
2023-04-13T16:21:30.257Z,7.40
2023-04-13T16:26:32.583Z,7.40
2023-04-13T16:31:34.482Z,7.40
2023-04-13T16:36:36.830Z,7.40
2023-04-13T16:41:38.646Z,7.40
2023-04-13T16:46:40.428Z,7.50
2023-04-13T16:51:42.255Z,7.50
2023-04-13T16:56:44.068Z,7.50
2023-04-13T17:01:45.997Z,7.50
2023-04-13T17:06:48.110Z,7.50
2023-04-13T17:11:49.955Z,7.50
2023-04-13T17:16:51.892Z,7.40
2023-04-13T17:21:53.651Z,7.40
2023-04-13T17:26:56.970Z,7.30
2023-04-13T17:31:59.055Z,7.30
2023-04-13T17:37:02.209Z,7.30
2023-04-13T17:42:04.247Z,7.20
2023-04-13T17:47:06.139Z,7.10
2023-04-13T17:52:08.102Z,7.00
2023-04-13T17:57:09.988Z,6.90
2023-04-13T18:02:12.053Z,6.90
2023-04-13T18:07:14.839Z,6.90
2023-04-13T18:12:16.854Z,6.70
2023-04-13T18:17:18.625Z,6.60
2023-04-13T18:22:20.606Z,6.60
2023-04-13T18:27:27.273Z,6.50
2023-04-13T18:32:29.163Z,6.50
2023-04-13T18:37:31.080Z,6.40
2023-04-13T18:42:33.435Z,6.30
2023-04-13T18:47:35.368Z,6.30
2023-04-13T18:52:37.368Z,6.20
2023-04-13T18:57:40.850Z,6.20
2023-04-13T19:02:46.306Z,6.20
2023-04-13T19:08:03.439Z,6.20
2023-04-13T19:13:05.212Z,6.20
2023-04-13T19:18:07.773Z,6.10
2023-04-13T19:23:09.506Z,6.10
2023-04-13T19:28:11.522Z,6.10
2023-04-13T19:33:13.388Z,6.10
2023-04-13T19:38:15.336Z,6.10
2023-04-13T19:43:20.856Z,6.10
2023-04-13T19:48:22.682Z,6.10
2023-04-13T19:53:24.546Z,6.10
2023-04-13T19:58:26.667Z,6.10
2023-04-13T20:03:28.777Z,6.10
2023-04-13T20:08:30.950Z,6.10
2023-04-13T20:13:32.791Z,6.00
2023-04-13T20:18:34.575Z,6.00
2023-04-13T20:23:36.521Z,5.90
2023-04-13T20:28:38.862Z,5.80
2023-04-13T20:33:40.859Z,5.70
2023-04-13T20:38:45.387Z,5.70
2023-04-13T20:43:50.679Z,5.70
2023-04-13T20:48:52.871Z,5.70
2023-04-13T20:53:55.455Z,5.60
2023-04-13T20:58:58.022Z,5.60
2023-04-13T21:04:00.327Z,5.60
2023-04-13T21:09:05.033Z,5.60
2023-04-13T21:14:06.799Z,5.50
2023-04-13T21:19:08.609Z,5.50
2023-04-13T21:24:11.522Z,5.50
2023-04-13T21:29:13.990Z,5.60
2023-04-13T21:34:16.945Z,5.60
2023-04-13T21:39:18.769Z,5.60
2023-04-13T21:44:28.761Z,5.70
2023-04-13T21:49:31.777Z,5.60
2023-04-13T21:54:33.907Z,5.60
2023-04-13T21:59:35.706Z,5.70
2023-04-13T22:04:37.662Z,5.70
2023-04-13T22:09:39.729Z,5.60
2023-04-13T22:14:41.644Z,5.70
2023-04-13T22:19:43.525Z,5.70
2023-04-13T22:24:46.375Z,5.70
2023-04-13T22:29:48.154Z,5.80
2023-04-13T22:34:50.371Z,5.80
2023-04-13T22:39:52.188Z,5.80
2023-04-13T22:44:54.048Z,5.80
2023-04-13T22:49:55.838Z,5.70
2023-04-13T22:54:57.726Z,5.60
2023-04-13T22:59:59.547Z,5.60
2023-04-13T23:05:01.776Z,5.60
2023-04-13T23:10:03.963Z,5.70
2023-04-13T23:15:06.789Z,5.70
2023-04-13T23:20:10.535Z,5.70
2023-04-13T23:25:12.294Z,5.70
2023-04-13T23:30:14.351Z,5.70
2023-04-13T23:35:16.417Z,5.70
2023-04-13T23:40:18.268Z,5.70
2023-04-13T23:45:20.087Z,5.70
2023-04-13T23:50:22.319Z,5.70
2023-04-13T23:55:24.205Z,5.70
